createdAt,value
2023-02-25T00:01:39.321Z,100.00
2023-02-25T00:04:06.762Z,100.00
2023-02-25T00:06:34.078Z,100.00
2023-02-25T00:09:01.461Z,100.00
2023-02-25T00:11:30.251Z,100.00
2023-02-25T00:13:57.391Z,100.00
2023-02-25T00:16:25.959Z,100.00
2023-02-25T00:18:57.433Z,100.00
2023-02-25T00:21:25.377Z,100.00
2023-02-25T00:23:53.723Z,100.00
2023-02-25T00:26:22.628Z,100.00
2023-02-25T00:28:50.702Z,100.00
2023-02-25T00:31:22.708Z,100.00
2023-02-25T00:33:51.728Z,100.00
2023-02-25T00:36:23.374Z,100.00
2023-02-25T00:38:56.384Z,100.00
2023-02-25T00:41:30.712Z,100.00
2023-02-25T00:44:01.066Z,100.00
2023-02-25T00:46:30.882Z,100.00
2023-02-25T00:48:59.096Z,100.00
2023-02-25T00:51:30.216Z,100.00
2023-02-25T00:53:58.054Z,100.00
2023-02-25T00:56:26.283Z,100.00
2023-02-25T00:58:54.117Z,100.00
2023-02-25T01:01:27.839Z,100.00
2023-02-25T01:03:56.895Z,100.00
2023-02-25T01:06:28.350Z,100.00
2023-02-25T01:08:56.986Z,100.00
2023-02-25T01:11:31.559Z,100.00
2023-02-25T01:14:07.022Z,100.00
2023-02-25T01:16:36.304Z,100.00
2023-02-25T01:19:13.727Z,100.00
2023-02-25T01:21:48.473Z,100.00
2023-02-25T01:24:21.280Z,100.00
2023-02-25T01:26:51.744Z,100.00
2023-02-25T01:29:23.248Z,100.00
2023-02-25T01:32:00.856Z,100.00
2023-02-25T01:34:29.634Z,100.00
2023-02-25T01:36:57.290Z,100.00
2023-02-25T01:39:26.736Z,100.00
2023-02-25T01:41:56.851Z,100.00
2023-02-25T01:44:25.786Z,100.00
2023-02-25T01:46:54.949Z,100.00
2023-02-25T01:49:55.651Z,100.00
2023-02-25T01:52:25.302Z,100.00
2023-02-25T01:54:57.238Z,100.00
2023-02-25T01:57:26.029Z,100.00
2023-02-25T01:59:55.045Z,100.00
2023-02-25T02:02:27.770Z,100.00
2023-02-25T02:04:55.920Z,100.00
2023-02-25T02:07:24.913Z,100.00
2023-02-25T02:10:00.180Z,100.00
2023-02-25T02:12:35.722Z,100.00
2023-02-25T02:15:08.642Z,100.00
2023-02-25T02:18:02.667Z,100.00
2023-02-25T02:20:57.743Z,100.00
2023-02-25T02:23:59.770Z,100.00
2023-02-25T02:26:52.193Z,100.00
2023-02-25T02:29:22.009Z,100.00
2023-02-25T02:32:21.452Z,100.00
2023-02-25T02:35:35.494Z,100.00
2023-02-25T02:38:35.964Z,100.00
2023-02-25T02:41:35.634Z,100.00
2023-02-25T02:44:34.198Z,100.00
2023-02-25T02:47:09.679Z,100.00
2023-02-25T02:49:46.874Z,100.00
2023-02-25T02:52:24.273Z,100.00
2023-02-25T02:55:22.633Z,100.00
2023-02-25T02:57:59.775Z,100.00
2023-02-25T03:00:34.443Z,100.00
2023-02-25T03:03:36.653Z,100.00
2023-02-25T03:06:13.222Z,100.00
2023-02-25T03:09:11.025Z,100.00
2023-02-25T03:11:38.542Z,100.00
2023-02-25T03:14:09.174Z,100.00
2023-02-25T03:16:45.511Z,100.00
2023-02-25T03:19:21.773Z,100.00
2023-02-25T03:22:23.350Z,100.00
2023-02-25T03:25:31.086Z,100.00
2023-02-25T03:28:30.652Z,100.00
2023-02-25T03:31:21.723Z,100.00
2023-02-25T03:34:08.358Z,100.00
2023-02-25T03:36:42.344Z,100.00
2023-02-25T03:39:21.643Z,100.00
2023-02-25T03:41:54.531Z,100.00
2023-02-25T03:44:28.570Z,100.00
2023-02-25T03:46:57.599Z,100.00
2023-02-25T03:49:51.972Z,100.00
2023-02-25T03:52:23.284Z,100.00
2023-02-25T03:54:57.342Z,100.00
2023-02-25T03:57:35.137Z,100.00
2023-02-25T04:00:15.616Z,100.00
2023-02-25T04:02:44.250Z,100.00
2023-02-25T04:05:12.976Z,100.00
2023-02-25T04:07:40.632Z,100.00
2023-02-25T04:10:10.787Z,100.00
2023-02-25T04:12:38.219Z,100.00
2023-02-25T04:15:07.297Z,100.00
2023-02-25T04:17:35.494Z,100.00
2023-02-25T04:20:03.445Z,100.00
2023-02-25T04:22:31.184Z,100.00
2023-02-25T04:24:58.470Z,100.00
2023-02-25T04:27:27.343Z,100.00
2023-02-25T04:29:54.629Z,100.00
2023-02-25T04:32:22.032Z,100.00
2023-02-25T04:34:49.410Z,100.00
2023-02-25T04:37:17.363Z,100.00
2023-02-25T04:39:44.557Z,100.00
2023-02-25T04:42:11.799Z,100.00
2023-02-25T04:44:38.999Z,100.00
2023-02-25T04:47:06.420Z,100.00
2023-02-25T04:49:44.964Z,100.00
2023-02-25T04:52:15.927Z,100.00
2023-02-25T04:54:43.217Z,100.00
2023-02-25T04:57:12.192Z,100.00
2023-02-25T04:59:39.604Z,100.00
2023-02-25T05:02:07.903Z,100.00
2023-02-25T05:04:39.593Z,100.00
2023-02-25T05:07:08.112Z,100.00
2023-02-25T05:09:35.532Z,100.00
2023-02-25T05:12:03.254Z,100.00
2023-02-25T05:14:32.868Z,100.00
2023-02-25T05:17:00.179Z,100.00
2023-02-25T05:19:27.378Z,100.00
2023-02-25T05:21:54.660Z,100.00
2023-02-25T05:24:23.733Z,100.00
2023-02-25T05:26:54.233Z,100.00
2023-02-25T05:29:21.625Z,100.00
2023-02-25T05:31:51.797Z,100.00
2023-02-25T05:34:19.267Z,100.00
2023-02-25T05:36:46.916Z,100.00
2023-02-25T05:39:14.615Z,100.00
2023-02-25T05:41:42.143Z,100.00
2023-02-25T05:44:11.733Z,100.00
2023-02-25T05:46:38.973Z,100.00
2023-02-25T05:49:06.249Z,100.00
2023-02-25T05:51:33.546Z,100.00
2023-02-25T05:54:00.738Z,100.00
2023-02-25T05:56:31.687Z,100.00
2023-02-25T05:58:59.578Z,100.00
2023-02-25T06:01:29.515Z,100.00
2023-02-25T06:04:00.252Z,100.00
2023-02-25T06:06:31.042Z,100.00
2023-02-25T06:08:58.920Z,100.00
2023-02-25T06:11:30.806Z,100.00
2023-02-25T06:13:59.596Z,100.00
2023-02-25T06:16:32.678Z,100.00
2023-02-25T06:19:01.409Z,100.00
2023-02-25T06:21:29.256Z,100.00
2023-02-25T06:23:56.693Z,100.00
2023-02-25T06:26:24.194Z,100.00
2023-02-25T06:28:51.596Z,100.00
2023-02-25T06:31:20.657Z,100.00
2023-02-25T06:33:48.753Z,100.00
2023-02-25T06:36:16.401Z,100.00
2023-02-25T06:38:46.087Z,100.00
2023-02-25T06:41:17.954Z,100.00
2023-02-25T06:43:46.265Z,100.00
2023-02-25T06:46:15.200Z,100.00
2023-02-25T06:48:42.620Z,100.00
2023-02-25T06:51:10.738Z,100.00
2023-02-25T06:53:39.888Z,100.00
2023-02-25T06:56:10.792Z,100.00
2023-02-25T06:58:39.046Z,100.00
2023-02-25T07:01:14.006Z,100.00
2023-02-25T07:03:43.669Z,100.00
2023-02-25T07:06:11.567Z,100.00
2023-02-25T07:08:38.919Z,100.00
2023-02-25T07:11:33.708Z,100.00
2023-02-25T07:14:01.669Z,100.00
2023-02-25T07:16:34.697Z,100.00
2023-02-25T07:19:02.610Z,100.00
2023-02-25T07:21:31.155Z,100.00
2023-02-25T07:23:58.798Z,100.00
2023-02-25T07:26:28.506Z,100.00
2023-02-25T07:28:59.848Z,100.00
2023-02-25T07:31:28.938Z,100.00
2023-02-25T07:33:57.749Z,94.57
2023-02-25T07:36:26.198Z,92.46
2023-02-25T07:38:54.392Z,92.12
2023-02-25T07:41:23.238Z,88.54
2023-02-25T07:43:50.718Z,86.24
2023-02-25T07:46:18.067Z,87.06
2023-02-25T07:48:45.489Z,86.80
2023-02-25T07:51:18.600Z,85.66
2023-02-25T07:53:47.968Z,78.66
2023-02-25T07:56:18.457Z,81.11
2023-02-25T07:58:46.482Z,69.03
2023-02-25T08:01:27.045Z,68.23
2023-02-25T08:03:56.643Z,70.56
2023-02-25T08:06:23.948Z,76.90
2023-02-25T08:08:52.197Z,81.72
2023-02-25T08:11:22.199Z,81.97
2023-02-25T08:13:50.015Z,84.29
2023-02-25T08:16:19.531Z,86.56
2023-02-25T08:18:47.865Z,81.99
2023-02-25T08:21:18.443Z,80.74
2023-02-25T08:23:46.156Z,76.76
2023-02-25T08:26:13.424Z,79.56
2023-02-25T08:28:40.695Z,74.38
2023-02-25T08:31:11.657Z,77.06
2023-02-25T08:33:45.683Z,78.06
2023-02-25T08:36:26.962Z,74.18
2023-02-25T08:38:57.439Z,77.50
2023-02-25T08:41:28.382Z,79.98
2023-02-25T08:43:57.991Z,79.35
2023-02-25T08:46:28.412Z,78.42
2023-02-25T08:48:56.356Z,81.49
2023-02-25T08:51:34.138Z,80.24
2023-02-25T08:54:14.270Z,80.53
2023-02-25T08:56:45.533Z,81.08
2023-02-25T08:59:16.209Z,79.02
2023-02-25T09:01:48.374Z,77.53
2023-02-25T09:04:20.106Z,76.70
2023-02-25T09:06:47.964Z,77.39
2023-02-25T09:09:20.540Z,77.82
2023-02-25T09:11:49.316Z,77.64
2023-02-25T09:14:17.312Z,77.80
2023-02-25T09:16:45.022Z,77.26
2023-02-25T09:19:15.838Z,78.28
2023-02-25T09:21:43.037Z,80.91
2023-02-25T09:24:10.709Z,77.74
2023-02-25T09:26:38.446Z,79.43
2023-02-25T09:29:07.600Z,82.76
2023-02-25T09:31:37.603Z,82.05
2023-02-25T09:34:09.961Z,83.37
2023-02-25T09:36:37.362Z,84.27
2023-02-25T09:39:10.305Z,83.68
2023-02-25T09:41:55.535Z,84.63
2023-02-25T09:44:51.245Z,83.38
2023-02-25T09:47:40.308Z,86.13
2023-02-25T09:50:18.608Z,86.12
2023-02-25T09:53:15.672Z,86.49
2023-02-25T09:55:47.807Z,89.68
2023-02-25T09:58:41.146Z,90.30
2023-02-25T10:01:18.965Z,89.69
2023-02-25T10:04:20.769Z,88.61
2023-02-25T10:06:51.191Z,88.15
2023-02-25T10:10:22.022Z,86.29
2023-02-25T10:13:16.828Z,85.01
2023-02-25T10:16:11.080Z,84.28
2023-02-25T10:19:01.546Z,84.15
2023-02-25T10:22:02.138Z,82.40
2023-02-25T10:24:37.396Z,82.17
2023-02-25T10:27:33.939Z,80.76
2023-02-25T10:30:45.064Z,81.54
2023-02-25T10:33:38.201Z,82.47
2023-02-25T10:36:10.820Z,80.69
2023-02-25T10:38:52.064Z,80.52
2023-02-25T10:41:23.517Z,81.27
2023-02-25T10:43:51.813Z,83.34
2023-02-25T10:46:54.716Z,79.57
2023-02-25T10:49:29.212Z,76.76
2023-02-25T10:52:05.223Z,77.57
2023-02-25T10:54:36.157Z,76.90
2023-02-25T10:57:13.700Z,76.60
2023-02-25T10:59:43.474Z,77.81
2023-02-25T11:02:30.399Z,77.06
2023-02-25T11:04:58.246Z,76.67
2023-02-25T11:07:30.960Z,77.52
2023-02-25T11:10:21.932Z,77.73
2023-02-25T11:12:55.236Z,77.47
2023-02-25T11:15:37.873Z,78.05
2023-02-25T11:18:29.812Z,78.66
2023-02-25T11:21:01.982Z,77.98
2023-02-25T11:23:46.620Z,78.04
2023-02-25T11:26:33.716Z,77.93
2023-02-25T11:29:19.037Z,79.14
2023-02-25T11:31:57.899Z,79.22
2023-02-25T11:34:31.971Z,78.28
2023-02-25T11:37:43.382Z,77.79
2023-02-25T11:40:32.902Z,80.85
2023-02-25T11:43:03.191Z,78.57
2023-02-25T11:45:33.482Z,80.45
2023-02-25T11:48:04.567Z,79.25
2023-02-25T11:50:53.967Z,80.04
2023-02-25T11:53:39.196Z,78.15
2023-02-25T11:56:27.380Z,79.75
2023-02-25T11:59:45.825Z,79.57
2023-02-25T12:02:20.865Z,78.21
2023-02-25T12:05:28.521Z,79.60
2023-02-25T12:08:33.119Z,85.39
2023-02-25T12:11:03.195Z,84.92
2023-02-25T12:14:21.689Z,84.02
2023-02-25T12:17:20.520Z,82.48
2023-02-25T12:20:24.956Z,82.90
2023-02-25T12:23:26.241Z,81.26
2023-02-25T12:26:34.708Z,82.21
2023-02-25T12:29:38.565Z,79.05
2023-02-25T12:32:22.857Z,78.43
2023-02-25T12:35:07.758Z,75.50
2023-02-25T12:38:00.237Z,74.51
2023-02-25T12:40:36.566Z,74.88
2023-02-25T12:43:27.823Z,73.46
2023-02-25T12:46:47.739Z,75.15
2023-02-25T12:49:52.444Z,75.68
2023-02-25T12:52:28.846Z,73.91
2023-02-25T12:55:40.816Z,75.24
2023-02-25T12:58:45.281Z,75.64
2023-02-25T13:01:39.923Z,75.42
2023-02-25T13:04:56.123Z,76.75
2023-02-25T13:07:29.234Z,76.06
2023-02-25T13:10:04.148Z,77.48
2023-02-25T13:12:58.439Z,77.41
2023-02-25T13:16:01.464Z,78.48
2023-02-25T13:19:06.477Z,77.43
2023-02-25T13:21:52.215Z,76.16
2023-02-25T13:24:57.097Z,74.36
2023-02-25T13:27:56.275Z,71.82
2023-02-25T13:30:44.313Z,71.29
2023-02-25T13:33:46.205Z,72.58
2023-02-25T13:36:48.836Z,71.39
2023-02-25T13:39:54.597Z,72.29
2023-02-25T13:43:05.723Z,75.11
2023-02-25T13:46:25.200Z,72.96
2023-02-25T13:49:41.131Z,74.39
2023-02-25T13:52:53.646Z,73.92
2023-02-25T13:55:53.900Z,73.20
2023-02-25T13:59:27.110Z,72.80
2023-02-25T14:02:35.040Z,73.94
2023-02-25T14:05:56.289Z,74.10
2023-02-25T14:09:02.109Z,71.39
2023-02-25T14:11:57.733Z,71.64
2023-02-25T14:15:14.148Z,71.86
2023-02-25T14:18:31.101Z,70.70
2023-02-25T14:21:27.868Z,73.78
2023-02-25T14:23:56.421Z,71.32
2023-02-25T14:26:33.632Z,72.91
2023-02-25T14:29:34.606Z,72.80
2023-02-25T14:32:29.904Z,71.87
2023-02-25T14:35:47.615Z,70.19
2023-02-25T14:38:37.783Z,70.18
2023-02-25T14:41:33.672Z,70.60
2023-02-25T14:44:14.754Z,71.56
2023-02-25T14:46:50.683Z,72.30
2023-02-25T14:49:33.475Z,71.66
2023-02-25T14:52:46.092Z,71.52
2023-02-25T14:55:43.627Z,72.01
2023-02-25T14:59:00.720Z,72.50
2023-02-25T15:01:54.727Z,72.66
2023-02-25T15:05:04.774Z,73.58
2023-02-25T15:08:21.175Z,82.18
2023-02-25T15:11:16.978Z,86.66
2023-02-25T15:14:07.699Z,90.28
2023-02-25T15:16:55.538Z,95.86
2023-02-25T15:19:25.264Z,97.89
2023-02-25T15:22:21.626Z,99.04
2023-02-25T15:24:52.479Z,100.00
2023-02-25T15:27:33.108Z,100.00
2023-02-25T15:30:05.818Z,100.00
2023-02-25T15:32:57.563Z,100.00
2023-02-25T15:35:54.057Z,100.00
2023-02-25T15:38:50.339Z,99.61
2023-02-25T15:41:29.973Z,100.00
2023-02-25T15:43:57.760Z,100.00
2023-02-25T15:46:34.270Z,100.00
2023-02-25T15:49:35.413Z,100.00
2023-02-25T15:52:06.407Z,100.00
2023-02-25T15:54:33.489Z,100.00
2023-02-25T15:57:22.208Z,99.70
2023-02-25T15:59:57.731Z,99.40
2023-02-25T16:02:30.809Z,96.80
2023-02-25T16:05:09.852Z,98.13
2023-02-25T16:07:52.990Z,99.71
2023-02-25T16:10:44.691Z,100.00
2023-02-25T16:13:40.110Z,100.00
2023-02-25T16:16:10.640Z,100.00
2023-02-25T16:18:47.758Z,100.00
2023-02-25T16:21:17.888Z,100.00
2023-02-25T16:23:45.304Z,100.00
2023-02-25T16:27:03.514Z,100.00
2023-02-25T16:29:49.310Z,100.00
2023-02-25T16:32:33.119Z,100.00
2023-02-25T16:35:23.762Z,100.00
2023-02-25T16:38:39.012Z,100.00
2023-02-25T16:41:06.342Z,100.00
2023-02-25T16:43:39.531Z,100.00
2023-02-25T16:46:13.699Z,100.00
2023-02-25T16:48:54.869Z,100.00
2023-02-25T16:51:41.462Z,100.00
2023-02-25T16:54:38.125Z,100.00
2023-02-25T16:57:09.453Z,100.00
2023-02-25T16:59:38.868Z,100.00
2023-02-25T17:02:15.092Z,100.00
2023-02-25T17:05:22.143Z,100.00
2023-02-25T17:07:56.715Z,100.00
2023-02-25T17:10:47.039Z,100.00
2023-02-25T17:13:24.588Z,100.00
2023-02-25T17:15:53.155Z,100.00
2023-02-25T17:18:32.789Z,100.00
2023-02-25T17:21:35.737Z,100.00
2023-02-25T17:24:11.791Z,100.00
2023-02-25T17:26:48.872Z,100.00
2023-02-25T17:29:18.433Z,100.00
2023-02-25T17:31:50.875Z,100.00
2023-02-25T17:34:30.429Z,100.00
2023-02-25T17:37:04.374Z,100.00
2023-02-25T17:39:32.755Z,100.00
2023-02-25T17:42:00.256Z,100.00
2023-02-25T17:44:36.840Z,100.00
2023-02-25T17:47:08.283Z,100.00
2023-02-25T17:49:37.965Z,100.00
2023-02-25T17:52:19.550Z,100.00
2023-02-25T17:55:01.029Z,100.00
2023-02-25T17:57:32.108Z,100.00
2023-02-25T18:00:20.638Z,100.00
2023-02-25T18:02:48.030Z,100.00
2023-02-25T18:05:18.662Z,100.00
2023-02-25T18:08:22.122Z,100.00
2023-02-25T18:10:58.080Z,100.00
2023-02-25T18:13:35.296Z,100.00
2023-02-25T18:16:41.259Z,100.00
2023-02-25T18:19:32.765Z,100.00
2023-02-25T18:22:00.217Z,100.00
2023-02-25T18:24:36.496Z,100.00
2023-02-25T18:27:26.927Z,100.00
2023-02-25T18:29:58.630Z,100.00
2023-02-25T18:32:27.641Z,100.00
2023-02-25T18:34:55.021Z,100.00
2023-02-25T18:37:22.317Z,100.00
2023-02-25T18:39:51.350Z,100.00
2023-02-25T18:42:19.240Z,100.00
2023-02-25T18:44:47.661Z,100.00
2023-02-25T18:47:16.884Z,100.00
2023-02-25T18:49:45.533Z,100.00
2023-02-25T18:52:25.248Z,100.00
2023-02-25T18:54:52.501Z,100.00
2023-02-25T18:57:26.523Z,100.00
2023-02-25T18:59:54.024Z,100.00
2023-02-25T19:02:45.774Z,100.00
2023-02-25T19:05:13.126Z,100.00
2023-02-25T19:07:40.566Z,100.00
2023-02-25T19:10:09.076Z,100.00
2023-02-25T19:12:36.445Z,100.00
2023-02-25T19:15:08.683Z,100.00
2023-02-25T19:17:36.034Z,100.00
2023-02-25T19:20:04.442Z,100.00
2023-02-25T19:22:31.724Z,100.00
2023-02-25T19:24:59.323Z,100.00
2023-02-25T19:27:29.143Z,100.00
2023-02-25T19:29:59.648Z,100.00
2023-02-25T19:32:27.305Z,100.00
2023-02-25T19:34:55.071Z,100.00
2023-02-25T19:37:22.349Z,100.00
2023-02-25T19:39:49.652Z,100.00
2023-02-25T19:42:16.924Z,100.00
2023-02-25T19:44:44.274Z,100.00
2023-02-25T19:47:11.535Z,100.00
2023-02-25T19:49:38.816Z,100.00
2023-02-25T19:52:06.385Z,100.00
2023-02-25T19:54:33.708Z,100.00
2023-02-25T19:57:01.770Z,100.00
2023-02-25T19:59:31.024Z,100.00
2023-02-25T20:01:58.497Z,100.00
2023-02-25T20:04:25.910Z,100.00
2023-02-25T20:06:53.203Z,100.00
2023-02-25T20:09:20.852Z,100.00
2023-02-25T20:11:48.951Z,100.00
2023-02-25T20:14:17.418Z,100.00
2023-02-25T20:16:45.127Z,100.00
2023-02-25T20:19:12.461Z,100.00
2023-02-25T20:21:39.787Z,100.00
2023-02-25T20:24:07.376Z,100.00
2023-02-25T20:26:34.887Z,100.00
2023-02-25T20:29:02.419Z,100.00
2023-02-25T20:31:30.399Z,100.00
2023-02-25T20:34:01.353Z,100.00
2023-02-25T20:36:51.539Z,100.00
2023-02-25T20:39:37.519Z,100.00
2023-02-25T20:42:20.874Z,100.00
2023-02-25T20:44:51.521Z,100.00
2023-02-25T20:47:25.125Z,100.00
2023-02-25T20:49:54.997Z,100.00
2023-02-25T20:52:22.571Z,100.00
2023-02-25T20:54:50.046Z,100.00
2023-02-25T20:57:20.963Z,100.00
2023-02-25T20:59:48.619Z,100.00
2023-02-25T21:02:18.416Z,100.00
2023-02-25T21:04:46.703Z,100.00
2023-02-25T21:07:14.666Z,100.00
2023-02-25T21:09:42.195Z,100.00
2023-02-25T21:12:10.348Z,100.00
2023-02-25T21:14:37.617Z,100.00
2023-02-25T21:17:09.544Z,100.00
2023-02-25T21:19:40.124Z,100.00
2023-02-25T21:22:08.597Z,100.00
2023-02-25T21:24:36.871Z,100.00
2023-02-25T21:27:04.915Z,100.00
2023-02-25T21:29:32.574Z,100.00
2023-02-25T21:31:59.871Z,100.00
2023-02-25T21:34:27.406Z,100.00
2023-02-25T21:36:58.453Z,100.00
2023-02-25T21:39:26.213Z,100.00
2023-02-25T21:41:53.672Z,100.00
2023-02-25T21:44:21.138Z,100.00
2023-02-25T21:46:48.542Z,100.00
2023-02-25T21:49:15.768Z,100.00
2023-02-25T21:51:43.258Z,100.00
2023-02-25T21:54:10.796Z,100.00
2023-02-25T21:56:40.142Z,100.00
2023-02-25T21:59:07.304Z,100.00
2023-02-25T22:01:40.893Z,100.00
2023-02-25T22:04:09.911Z,100.00
2023-02-25T22:06:38.121Z,100.00
2023-02-25T22:09:07.031Z,100.00
2023-02-25T22:11:37.075Z,100.00
2023-02-25T22:14:07.969Z,100.00
2023-02-25T22:16:37.345Z,100.00
2023-02-25T22:19:05.475Z,100.00
2023-02-25T22:21:35.571Z,100.00
2023-02-25T22:24:05.712Z,100.00
2023-02-25T22:26:35.630Z,100.00
2023-02-25T22:29:08.264Z,100.00
2023-02-25T22:31:36.191Z,100.00
2023-02-25T22:34:03.983Z,100.00
2023-02-25T22:36:31.510Z,100.00
2023-02-25T22:38:58.818Z,100.00
2023-02-25T22:41:28.971Z,100.00
2023-02-25T22:43:58.364Z,100.00
2023-02-25T22:46:29.499Z,100.00
2023-02-25T22:48:57.710Z,100.00
2023-02-25T22:51:35.582Z,100.00
2023-02-25T22:54:04.850Z,100.00
2023-02-25T22:56:33.873Z,100.00
2023-02-25T22:59:01.489Z,100.00
2023-02-25T23:01:28.798Z,100.00
2023-02-25T23:03:57.184Z,100.00
2023-02-25T23:06:42.284Z,100.00
2023-02-25T23:09:10.702Z,100.00
2023-02-25T23:11:41.718Z,100.00
2023-02-25T23:14:09.031Z,100.00
2023-02-25T23:16:43.447Z,100.00
2023-02-25T23:19:15.828Z,100.00
2023-02-25T23:21:44.033Z,100.00
2023-02-25T23:24:18.641Z,100.00
2023-02-25T23:26:50.746Z,100.00
2023-02-25T23:29:18.442Z,100.00
2023-02-25T23:31:47.851Z,100.00
2023-02-25T23:34:22.941Z,100.00
2023-02-25T23:36:50.746Z,100.00
2023-02-25T23:39:18.413Z,100.00
2023-02-25T23:41:45.930Z,100.00
2023-02-25T23:44:14.344Z,100.00
2023-02-25T23:46:43.470Z,100.00
2023-02-25T23:49:15.732Z,100.00
2023-02-25T23:51:45.898Z,100.00
2023-02-25T23:54:16.833Z,100.00
2023-02-25T23:56:45.072Z,100.00
2023-02-25T23:59:13.427Z,100.00
